Aviation Digital Data Service (ADDS)

Output produced by METARs form (2000 UTC 25 May 2017)
found at http://www.aviationweather.gov/adds/metars/
 
KGED 251954Z AUTO 23011KT 10SM FEW070 BKN090 OVC110 27/14 A2947 RMK AO2 SLP978 T02670144